Time;durP1;ratioP1;P1;durP2;ratioP2;P2;SDS_P1;SDS_P2;PMS_P1;PMS_P2;Temp;Humidity;BMP_temperature;BMP_pressure;BME280_temperature;BME280_humidity;BME280_pressure;Samples;Min_cycle;Max_cycle;Signal;HPM_P1;HPM_P2
2021/01/22 00:01:04;;;;;;;2.15;2.05;;;7.60;92.60;;;;;;4898519;29;20381;-74
2021/01/22 00:03:29;;;;;;;2.28;2.08;;;7.20;93.00;;;;;;4899303;29;20032;-75
2021/01/22 00:05:55;;;;;;;2.55;2.20;;;6.90;93.40;;;;;;4898955;29;20039;-73
2021/01/22 00:08:20;;;;;;;2.55;2.33;;;6.60;93.70;;;;;;4881115;29;20063;-74
2021/01/22 00:10:46;;;;;;;4.53;1.80;;;6.50;94.00;;;;;;4899128;29;20032;-75
2021/01/22 00:13:12;;;;;;;1.95;1.70;;;6.40;94.20;;;;;;4882318;29;20398;-76
2021/01/22 00:15:37;;;;;;;1.63;1.58;;;6.30;94.20;;;;;;4898059;29;20029;-74
2021/01/22 00:18:03;;;;;;;3.13;2.13;;;6.20;94.40;;;;;;4882005;29;20017;-74
2021/01/22 00:20:29;;;;;;;2.13;1.80;;;6.20;94.40;;;;;;4898674;29;20044;-74
2021/01/22 00:22:54;;;;;;;1.90;1.80;;;6.10;94.40;;;;;;4881377;29;20029;-74
2021/01/22 00:25:20;;;;;;;1.90;1.80;;;6.00;94.40;;;;;;4898448;29;20028;-74
2021/01/22 00:27:45;;;;;;;1.88;1.77;;;5.90;94.70;;;;;;4881788;29;20040;-74
2021/01/22 00:30:11;;;;;;;1.83;1.50;;;5.90;94.70;;;;;;4897834;29;20036;-73
2021/01/22 00:32:37;;;;;;;2.00;1.90;;;5.80;94.70;;;;;;4898281;29;20065;-73
2021/01/22 00:35:04;;;;;;;2.08;1.70;;;5.80;94.70;;;;;;4898564;29;20029;-73
2021/01/22 00:37:30;;;;;;;1.83;1.73;;;5.80;94.90;;;;;;4897673;29;20027;-74
2021/01/22 00:39:55;;;;;;;1.55;1.45;;;5.80;95.00;;;;;;4898527;29;20028;-73
2021/01/22 00:42:21;;;;;;;1.40;1.30;;;5.80;94.80;;;;;;4881357;29;20028;-74
2021/01/22 00:44:46;;;;;;;1.40;1.30;;;5.70;94.70;;;;;;4897775;29;20111;-73
2021/01/22 00:47:12;;;;;;;1.33;1.23;;;5.60;94.70;;;;;;4898254;29;20032;-73
2021/01/22 00:49:37;;;;;;;1.35;1.10;;;5.50;94.70;;;;;;4898021;29;20469;-73
2021/01/22 00:52:03;;;;;;;1.30;1.17;;;5.50;94.70;;;;;;4897410;29;20056;-73
2021/01/22 00:54:29;;;;;;;1.20;1.10;;;5.40;94.80;;;;;;4898076;29;20033;-74
2021/01/22 00:56:55;;;;;;;2.40;1.95;;;5.30;94.40;;;;;;4897603;29;20028;-73
2021/01/22 00:59:20;;;;;;;1.85;1.00;;;5.20;94.50;;;;;;4897761;29;20027;-73
2021/01/22 01:01:45;;;;;;;2.38;1.23;;;5.10;94.60;;;;;;4897541;29;20485;-73
2021/01/22 01:04:11;;;;;;;2.67;1.40;;;5.10;94.70;;;;;;4880643;29;20385;-73
2021/01/22 01:06:36;;;;;;;2.10;1.42;;;5.00;94.70;;;;;;4880931;29;20045;-73
2021/01/22 01:09:03;;;;;;;1.25;1.20;;;5.00;94.90;;;;;;4881066;29;20017;-73
2021/01/22 01:11:29;;;;;;;1.52;1.42;;;4.90;94.80;;;;;;4880283;29;20119;-72
2021/01/22 01:13:54;;;;;;;1.80;1.48;;;4.90;94.90;;;;;;4897970;29;20123;-72
2021/01/22 01:16:20;;;;;;;2.25;1.65;;;5.00;95.10;;;;;;4897833;29;20032;-72
2021/01/22 01:18:46;;;;;;;2.38;1.55;;;5.00;95.10;;;;;;4897152;29;20017;-74
2021/01/22 01:21:12;;;;;;;1.73;1.63;;;4.90;95.10;;;;;;4897877;29;20055;-72
2021/01/22 01:23:38;;;;;;;1.85;1.75;;;4.90;95.20;;;;;;4897634;29;20288;-71
2021/01/22 01:26:03;;;;;;;2.20;1.90;;;5.00;95.20;;;;;;4880413;29;20111;-72
2021/01/22 01:28:29;;;;;;;1.65;1.55;;;5.00;95.20;;;;;;4897454;29;20044;-72
2021/01/22 01:30:55;;;;;;;3.25;1.73;;;5.10;95.20;;;;;;4897761;29;20024;-72
2021/01/22 01:33:20;;;;;;;1.70;1.60;;;5.10;95.10;;;;;;4896744;29;20482;-71
2021/01/22 01:35:46;;;;;;;3.42;1.90;;;5.10;95.20;;;;;;4897738;29;20084;-72
2021/01/22 01:38:11;;;;;;;1.70;1.60;;;5.10;95.10;;;;;;4897797;29;20475;-72
2021/01/22 01:40:37;;;;;;;2.15;1.70;;;5.10;95.10;;;;;;4897003;29;20132;-72
2021/01/22 01:43:02;;;;;;;1.42;1.33;;;5.10;95.10;;;;;;4897714;29;20199;-73
2021/01/22 01:45:29;;;;;;;1.88;1.60;;;5.20;95.10;;;;;;4880467;29;20025;-72
2021/01/22 01:47:54;;;;;;;2.88;1.75;;;5.20;95.10;;;;;;4896896;29;20370;-73
2021/01/22 01:50:20;;;;;;;2.25;1.80;;;5.20;95.00;;;;;;4897205;29;20084;-73
2021/01/22 01:52:46;;;;;;;2.25;1.55;;;5.20;95.10;;;;;;4887730;29;20123;-73
2021/01/22 01:55:12;;;;;;;2.92;2.33;;;5.30;95.00;;;;;;4895634;29;20024;-73
2021/01/22 01:57:37;;;;;;;1.70;1.60;;;5.30;95.00;;;;;;4895842;29;20041;-73
2021/01/22 02:00:05;;;;;;;2.97;1.80;;;5.30;95.00;;;;;;4897490;29;20027;-72
2021/01/22 02:02:31;;;;;;;2.97;1.70;;;5.30;95.00;;;;;;4896639;29;20078;-73
2021/01/22 02:04:57;;;;;;;1.90;1.80;;;5.30;95.00;;;;;;4897484;29;20489;-72
2021/01/22 02:07:23;;;;;;;2.10;1.90;;;5.40;95.00;;;;;;4896514;29;20032;-72
2021/01/22 02:09:49;;;;;;;2.17;1.92;;;5.30;94.90;;;;;;4897452;29;20545;-73
2021/01/22 02:12:15;;;;;;;2.20;2.00;;;5.30;94.80;;;;;;4897905;29;20029;-72
2021/01/22 02:14:42;;;;;;;3.65;2.13;;;5.30;94.80;;;;;;4900185;29;20059;-72
2021/01/22 02:17:08;;;;;;;2.72;1.77;;;5.30;94.90;;;;;;4901252;29;20359;-72
2021/01/22 02:19:58;;;;;;;4.78;2.30;;;5.30;94.90;;;;;;4900749;29;20029;-72
2021/01/22 02:22:24;;;;;;;2.63;2.22;;;5.30;94.80;;;;;;4900066;29;20025;-72
2021/01/22 02:24:52;;;;;;;3.38;2.40;;;5.30;94.80;;;;;;4901214;29;20120;-72
2021/01/22 02:27:19;;;;;;;6.47;3.25;;;5.30;94.80;;;;;;4900694;29;20033;-73
2021/01/22 02:29:45;;;;;;;5.38;2.97;;;5.40;94.90;;;;;;4900112;29;20058;-73
2021/01/22 02:32:12;;;;;;;6.25;2.92;;;5.40;95.00;;;;;;4900739;29;20028;-74
2021/01/22 02:34:40;;;;;;;3.53;3.22;;;5.40;94.90;;;;;;4900478;29;20028;-73
2021/01/22 02:37:11;;;;;;;4.10;3.55;;;5.40;94.90;;;;;;4900246;29;20501;-73
2021/01/22 02:39:47;;;;;;;4.05;3.65;;;5.40;94.90;;;;;;4900340;29;20029;-73
2021/01/22 02:42:15;;;;;;;5.38;3.55;;;5.40;94.90;;;;;;4900822;29;20032;-73
2021/01/22 02:44:41;;;;;;;4.95;4.40;;;5.40;95.00;;;;;;4899549;29;20035;-73
2021/01/22 02:47:09;;;;;;;5.15;4.53;;;5.40;95.00;;;;;;4900529;29;20099;-73
2021/01/22 02:49:35;;;;;;;5.03;4.28;;;5.40;95.00;;;;;;4899665;29;20029;-72
2021/01/22 02:52:01;;;;;;;6.85;4.70;;;5.40;95.00;;;;;;4900127;29;20029;-72
2021/01/22 02:54:26;;;;;;;6.25;5.28;;;5.40;95.10;;;;;;4900204;29;20406;-74
2021/01/22 02:57:10;;;;;;;7.00;6.00;;;5.30;95.10;;;;;;4899698;29;20037;-73
2021/01/22 02:59:45;;;;;;;8.10;6.47;;;5.30;95.10;;;;;;4899951;29;20032;-74
2021/01/22 03:02:19;;;;;;;6.95;5.95;;;5.20;95.10;;;;;;4900313;29;20494;-74
2021/01/22 03:04:47;;;;;;;7.50;6.32;;;5.10;95.10;;;;;;4899746;29;20046;-74
2021/01/22 03:07:22;;;;;;;7.57;6.05;;;5.10;95.20;;;;;;4900170;29;20104;-74
2021/01/22 03:09:51;;;;;;;7.18;5.78;;;5.10;95.30;;;;;;4900123;29;20076;-75
2021/01/22 03:12:16;;;;;;;8.68;5.95;;;5.10;95.30;;;;;;4899663;29;20032;-74
2021/01/22 03:14:42;;;;;;;7.05;5.97;;;5.10;95.30;;;;;;4899688;29;20396;-74
2021/01/22 03:17:08;;;;;;;8.07;6.30;;;5.10;95.40;;;;;;4900119;29;20448;-74
2021/01/22 03:19:42;;;;;;;8.68;7.13;;;5.00;95.40;;;;;;4898886;29;20017;-75
2021/01/22 03:22:07;;;;;;;10.40;6.60;;;5.10;95.40;;;;;;4883107;29;20039;-74
2021/01/22 03:24:33;;;;;;;7.97;6.22;;;5.00;95.40;;;;;;4881642;29;20024;-73
2021/01/22 03:26:59;;;;;;;8.35;6.63;;;5.00;95.40;;;;;;4882960;29;20043;-73
2021/01/22 03:29:24;;;;;;;10.18;6.70;;;4.90;95.40;;;;;;4899609;29;20103;-74
2021/01/22 03:31:50;;;;;;;7.15;6.10;;;4.90;95.50;;;;;;4882334;29;20113;-74
2021/01/22 03:34:15;;;;;;;7.57;6.05;;;4.90;95.50;;;;;;4882863;29;20025;-72
2021/01/22 03:36:41;;;;;;;7.85;5.25;;;4.90;95.50;;;;;;4882521;29;20040;-73
2021/01/22 03:39:06;;;;;;;6.90;5.53;;;4.80;95.60;;;;;;4882080;29;20028;-73
2021/01/22 03:41:32;;;;;;;5.97;5.38;;;4.80;95.70;;;;;;4899313;29;20108;-72
2021/01/22 03:43:58;;;;;;;7.60;5.47;;;4.90;95.70;;;;;;4899592;29;20029;-73
2021/01/22 03:46:23;;;;;;;7.78;4.72;;;5.00;95.80;;;;;;4898479;29;20060;-73
2021/01/22 03:48:49;;;;;;;5.05;4.55;;;5.00;95.70;;;;;;4899499;29;20028;-73
2021/01/22 03:51:14;;;;;;;5.88;4.63;;;5.00;95.60;;;;;;4899481;29;20025;-73
2021/01/22 03:53:40;;;;;;;4.75;3.70;;;5.00;95.60;;;;;;4898256;29;20047;-74
2021/01/22 03:56:06;;;;;;;4.30;3.90;;;5.00;95.60;;;;;;4899340;29;20363;-73
2021/01/22 03:58:31;;;;;;;4.22;3.70;;;5.00;95.50;;;;;;4882025;29;20028;-74
2021/01/22 04:00:56;;;;;;;4.30;3.90;;;4.90;95.50;;;;;;4881944;29;20386;-73
2021/01/22 04:03:23;;;;;;;4.35;3.45;;;4.80;95.50;;;;;;4898953;29;20029;-73
2021/01/22 04:05:48;;;;;;;5.10;3.47;;;4.70;95.60;;;;;;4899409;29;20085;-74
2021/01/22 04:08:14;;;;;;;4.93;3.45;;;4.70;95.80;;;;;;4898342;29;20419;-73
2021/01/22 04:10:39;;;;;;;4.40;3.42;;;4.70;95.80;;;;;;4898799;29;20497;-73
2021/01/22 04:13:05;;;;;;;4.47;3.20;;;4.70;95.90;;;;;;4882198;29;20421;-74
2021/01/22 04:15:30;;;;;;;3.22;2.75;;;4.70;96.00;;;;;;4881351;29;20028;-74
2021/01/22 04:17:56;;;;;;;3.70;3.13;;;4.70;96.00;;;;;;4882147;29;20039;-74
2021/01/22 04:20:21;;;;;;;2.97;2.53;;;4.80;96.30;;;;;;4881786;29;20025;-74
2021/01/22 04:22:51;;;;;;;3.50;2.63;;;4.80;96.00;;;;;;4898200;29;20028;-74
2021/01/22 04:25:17;;;;;;;4.75;2.90;;;4.90;95.90;;;;;;4881945;29;20017;-73
2021/01/22 04:27:43;;;;;;;3.05;2.40;;;5.00;95.90;;;;;;4898576;29;20194;-73
2021/01/22 04:30:10;;;;;;;3.78;2.83;;;5.10;95.80;;;;;;4881122;29;20115;-73
2021/01/22 04:32:35;;;;;;;3.45;2.80;;;5.20;95.80;;;;;;4910907;29;20028;-75
2021/01/22 04:35:01;;;;;;;5.47;2.72;;;5.30;95.70;;;;;;4901125;29;20496;-73
2021/01/22 04:37:26;;;;;;;5.07;2.83;;;5.30;95.60;;;;;;4896865;29;20040;-74
2021/01/22 04:39:52;;;;;;;3.75;2.50;;;5.40;95.50;;;;;;4896747;29;20025;-74
2021/01/22 04:42:17;;;;;;;5.78;3.00;;;5.40;95.40;;;;;;4879473;29;20044;-73
2021/01/22 04:44:43;;;;;;;4.85;2.88;;;5.50;95.30;;;;;;4897317;29;20037;-74
2021/01/22 04:47:09;;;;;;;6.80;2.78;;;5.50;95.20;;;;;;4880121;29;20079;-74
2021/01/22 04:49:36;;;;;;;6.50;3.15;;;5.60;95.10;;;;;;4896321;29;20043;-74
2021/01/22 04:52:04;;;;;;;6.43;3.00;;;5.60;95.10;;;;;;4896462;29;20058;-74
2021/01/22 04:54:36;;;;;;;4.40;3.17;;;5.60;95.00;;;;;;4897983;29;20044;-72
2021/01/22 04:57:05;;;;;;;3.42;2.85;;;5.60;94.80;;;;;;4897594;29;20107;-72
2021/01/22 04:59:50;;;;;;;4.43;2.63;;;5.70;94.90;;;;;;4897755;29;20023;-73
2021/01/22 05:02:17;;;;;;;7.03;3.38;;;5.70;94.80;;;;;;4898193;29;20088;-73
2021/01/22 05:04:43;;;;;;;7.72;3.30;;;5.70;94.70;;;;;;4897311;29;20446;-72
2021/01/22 05:07:10;;;;;;;5.95;3.20;;;5.80;94.70;;;;;;4898146;29;20044;-73
2021/01/22 05:09:36;;;;;;;6.53;3.90;;;5.80;94.60;;;;;;4880812;29;20373;-72
2021/01/22 05:12:03;;;;;;;5.93;3.55;;;5.80;94.60;;;;;;4897518;29;20104;-72
2021/01/22 05:14:29;;;;;;;4.03;3.63;;;5.90;94.50;;;;;;4897764;29;20021;-73
2021/01/22 05:17:04;;;;;;;7.55;4.45;;;5.90;94.30;;;;;;4898019;29;20076;-72
2021/01/22 05:19:31;;;;;;;7.93;5.10;;;5.90;94.30;;;;;;4896321;29;20055;-72
2021/01/22 05:21:57;;;;;;;8.07;4.47;;;5.90;94.30;;;;;;4896454;29;20033;-73
2021/01/22 05:24:24;;;;;;;11.05;6.40;;;5.90;94.30;;;;;;4896878;29;20032;-72
2021/01/22 05:27:03;;;;;;;12.63;7.00;;;5.90;94.40;;;;;;4897534;29;20040;-73
2021/01/22 05:29:30;;;;;;;10.63;7.55;;;5.90;94.40;;;;;;4897477;29;20057;-73
2021/01/22 05:31:55;;;;;;;10.55;8.23;;;5.90;94.60;;;;;;4897282;29;20053;-74
2021/01/22 05:34:22;;;;;;;11.05;8.38;;;5.90;94.40;;;;;;4897601;29;20041;-73
2021/01/22 05:36:49;;;;;;;13.13;8.93;;;5.90;94.40;;;;;;4897923;29;20025;-73
2021/01/22 05:39:21;;;;;;;10.70;9.57;;;5.90;94.40;;;;;;4896967;29;20510;-73
2021/01/22 05:41:54;;;;;;;11.35;9.68;;;5.90;94.40;;;;;;4897739;29;20081;-73
2021/01/22 05:44:24;;;;;;;11.55;9.80;;;5.90;94.40;;;;;;4897366;29;20063;-73
2021/01/22 05:46:59;;;;;;;15.52;9.90;;;5.90;94.30;;;;;;4897997;29;20068;-73
2021/01/22 05:49:25;;;;;;;15.73;10.95;;;5.80;94.30;;;;;;4901077;29;20052;-73
2021/01/22 05:51:51;;;;;;;15.18;10.35;;;5.80;94.30;;;;;;4884801;29;20524;-75
2021/01/22 05:54:38;;;;;;;13.55;11.23;;;5.80;94.50;;;;;;4900958;29;20465;-74
2021/01/22 05:57:07;;;;;;;16.10;11.23;;;5.80;94.50;;;;;;4901429;29;20059;-74
2021/01/22 05:59:33;;;;;;;11.82;10.63;;;5.80;94.40;;;;;;4900158;29;20040;-74
2021/01/22 06:01:58;;;;;;;13.05;11.10;;;5.80;94.40;;;;;;4901547;29;20025;-74
2021/01/22 06:04:25;;;;;;;17.52;11.80;;;5.80;94.40;;;;;;4901046;29;20029;-73
2021/01/22 06:06:51;;;;;;;16.27;12.77;;;5.80;94.40;;;;;;4900802;29;20084;-73
2021/01/22 06:09:34;;;;;;;15.07;11.90;;;5.80;94.50;;;;;;4901158;29;20381;-73
2021/01/22 06:12:03;;;;;;;21.67;12.18;;;5.80;94.40;;;;;;4901399;29;20104;-73
2021/01/22 06:14:34;;;;;;;15.70;12.38;;;5.80;94.40;;;;;;4900158;29;20071;-73
2021/01/22 06:17:05;;;;;;;15.25;12.75;;;5.90;94.40;;;;;;4901175;29;20039;-74
2021/01/22 06:19:36;;;;;;;15.57;12.98;;;5.90;94.40;;;;;;4900779;29;20087;-73
2021/01/22 06:22:08;;;;;;;15.07;13.35;;;5.90;94.30;;;;;;4900404;29;20025;-73
2021/01/22 06:24:33;;;;;;;;;;;5.90;94.30;;;;;;4901450;29;20055;-74
2021/01/22 06:27:01;;;;;;;16.05;13.45;;;6.00;94.40;;;;;;4901101;29;20360;-74
2021/01/22 06:29:29;;;;;;;14.82;13.23;;;6.00;94.20;;;;;;4899871;29;20059;-73
2021/01/22 06:31:56;;;;;;;16.33;14.18;;;6.00;94.20;;;;;;4900842;29;20031;-74
2021/01/22 06:34:24;;;;;;;17.73;14.80;;;6.00;94.20;;;;;;4900416;29;20020;-73
2021/01/22 06:36:51;;;;;;;19.23;15.43;;;6.00;94.20;;;;;;4900256;29;20021;-73
2021/01/22 06:39:18;;;;;;;18.80;14.85;;;6.00;94.20;;;;;;4900653;29;20025;-73
2021/01/22 06:41:45;;;;;;;17.67;14.85;;;5.90;94.20;;;;;;4900234;29;20024;-73
2021/01/22 06:44:11;;;;;;;21.40;15.40;;;5.90;94.20;;;;;;4900717;29;20053;-74
2021/01/22 06:46:37;;;;;;;21.80;16.23;;;5.90;94.30;;;;;;4883373;29;20051;-74
2021/01/22 06:49:06;;;;;;;17.85;14.55;;;5.90;94.30;;;;;;4899899;29;20020;-73
2021/01/22 06:51:34;;;;;;;19.75;15.38;;;5.90;94.30;;;;;;4883140;29;20035;-73
2021/01/22 06:54:16;;;;;;;18.27;14.27;;;5.90;94.20;;;;;;4900358;29;20100;-73
2021/01/22 06:56:51;;;;;;;20.02;14.82;;;5.90;94.20;;;;;;4899486;29;20025;-73
2021/01/22 06:59:23;;;;;;;15.18;12.32;;;5.80;94.20;;;;;;4899462;29;20032;-73
2021/01/22 07:01:50;;;;;;;20.02;14.82;;;5.90;94.20;;;;;;4900589;29;20024;-73
2021/01/22 07:04:41;;;;;;;23.33;15.05;;;5.70;94.10;;;;;;4899594;29;20021;-72
2021/01/22 07:07:08;;;;;;;15.93;13.07;;;5.70;94.30;;;;;;4900461;29;20478;-75
2021/01/22 07:09:47;;;;;;;15.57;13.35;;;5.60;94.30;;;;;;4899831;29;20033;-74
2021/01/22 07:12:14;;;;;;;20.45;14.38;;;5.50;94.30;;;;;;4897040;29;20176;-75
2021/01/22 07:14:48;;;;;;;17.15;13.18;;;5.50;94.50;;;;;;4898598;29;20025;-72
2021/01/22 07:17:15;;;;;;;18.02;13.45;;;5.50;94.50;;;;;;4899477;29;20132;-72
2021/01/22 07:20:00;;;;;;;24.85;15.68;;;5.50;94.50;;;;;;4899618;29;20436;-72
2021/01/22 07:22:28;;;;;;;17.27;13.95;;;5.50;94.60;;;;;;4913174;29;20091;-72
2021/01/22 07:24:56;;;;;;;17.23;12.82;;;5.60;94.60;;;;;;4918123;29;20123;-74
2021/01/22 07:27:22;;;;;;;20.50;13.80;;;5.60;94.60;;;;;;4902846;29;20516;-73
2021/01/22 07:30:10;;;;;;;17.80;13.75;;;5.60;94.60;;;;;;4899826;29;20029;-73
2021/01/22 07:32:37;;;;;;;16.42;13.63;;;5.70;94.70;;;;;;4898889;29;20109;-72
2021/01/22 07:35:03;;;;;;;18.80;14.13;;;5.70;94.70;;;;;;4899661;29;20084;-73
2021/01/22 07:37:38;;;;;;;18.88;13.70;;;5.80;94.60;;;;;;4912198;29;20035;-72
2021/01/22 07:40:12;;;;;;;19.73;13.02;;;5.80;94.50;;;;;;4917804;29;20477;-72
2021/01/22 07:42:39;;;;;;;17.85;13.38;;;5.80;94.50;;;;;;4918206;29;20057;-73
2021/01/22 07:45:10;;;;;;;17.58;12.93;;;5.80;94.40;;;;;;4906386;29;20043;-72
2021/01/22 07:47:37;;;;;;;19.52;12.90;;;5.80;94.40;;;;;;4899040;29;20029;-72
2021/01/22 07:50:14;;;;;;;15.57;12.73;;;5.80;94.30;;;;;;4899298;29;20091;-72
2021/01/22 07:52:45;;;;;;;15.82;13.18;;;5.70;94.30;;;;;;4905796;29;20130;-72
2021/01/22 07:55:23;;;;;;;15.88;12.65;;;5.70;94.40;;;;;;4918212;29;20059;-72
2021/01/22 07:58:03;;;;;;;20.50;11.93;;;5.70;94.40;;;;;;4918002;29;20107;-73
2021/01/22 08:00:39;;;;;;;16.33;11.75;;;5.60;94.40;;;;;;4916218;29;20020;-73
2021/01/22 08:03:05;;;;;;;21.60;12.43;;;5.60;94.40;;;;;;4891330;29;20487;-73
2021/01/22 08:05:35;;;;;;;17.08;12.57;;;5.60;94.50;;;;;;4908376;29;20036;-72
2021/01/22 08:08:02;;;;;;;16.77;12.57;;;5.70;94.50;;;;;;4911243;29;20064;-72
2021/01/22 08:10:29;;;;;;;24.63;14.32;;;5.70;94.50;;;;;;4898226;29;20103;-72
2021/01/22 08:12:56;;;;;;;16.80;12.38;;;5.70;94.50;;;;;;4898569;29;20047;-72
2021/01/22 08:15:22;;;;;;;17.55;12.43;;;5.70;94.50;;;;;;4898490;29;20027;-72
2021/01/22 08:17:49;;;;;;;17.33;12.73;;;5.80;94.50;;;;;;4898910;29;20040;-72
2021/01/22 08:20:17;;;;;;;18.17;11.70;;;5.90;94.50;;;;;;4899013;29;20028;-72
2021/01/22 08:22:42;;;;;;;17.83;12.65;;;5.90;94.40;;;;;;4879838;29;20044;-72
2021/01/22 08:25:09;;;;;;;16.40;12.40;;;5.90;94.40;;;;;;4880200;29;20029;-72
2021/01/22 08:27:35;;;;;;;28.27;14.85;;;6.00;94.40;;;;;;4880052;29;20037;-72
2021/01/22 08:30:03;;;;;;;18.65;13.75;;;6.00;94.30;;;;;;4894334;29;20025;-73
2021/01/22 08:32:29;;;;;;;18.23;12.93;;;6.00;94.30;;;;;;4898400;29;20028;-72
2021/01/22 08:34:56;;;;;;;15.80;11.80;;;6.00;94.30;;;;;;4898063;29;20485;-73
2021/01/22 08:37:22;;;;;;;20.63;11.88;;;6.00;94.30;;;;;;4898347;29;20032;-72
2021/01/22 08:39:52;;;;;;;13.07;10.40;;;6.00;94.30;;;;;;4898504;29;20025;-73
2021/01/22 08:42:18;;;;;;;14.70;10.23;;;6.10;94.20;;;;;;4888912;29;20025;-74
2021/01/22 08:45:00;;;;;;;17.23;11.25;;;6.00;94.10;;;;;;4897293;29;20028;-73
2021/01/22 08:47:26;;;;;;;;;;;6.00;94.10;;;;;;4887655;29;20041;-77
2021/01/22 08:49:59;;;;;;;13.98;10.38;;;6.10;94.20;;;;;;4879156;29;19964;-73
2021/01/22 08:52:26;;;;;;;16.98;11.18;;;6.10;94.00;;;;;;4890845;29;20136;-70
2021/01/22 08:54:54;;;;;;;13.45;10.48;;;6.20;94.00;;;;;;4898421;29;20033;-74
2021/01/22 08:57:20;;;;;;;16.92;10.43;;;6.20;94.00;;;;;;4891447;29;20077;-70
2021/01/22 08:59:54;;;;;;;13.77;9.98;;;6.20;94.10;;;;;;4892272;29;20020;-71
2021/01/22 09:02:43;;;;;;;13.98;10.18;;;6.20;94.00;;;;;;4896821;29;20048;-71
2021/01/22 09:05:14;;;;;;;18.38;10.48;;;6.20;93.90;;;;;;4900670;29;20460;-71
2021/01/22 09:07:40;;;;;;;14.50;11.30;;;6.30;93.90;;;;;;4915946;29;20036;-72
2021/01/22 09:10:26;;;;;;;14.77;10.32;;;6.30;93.90;;;;;;4896809;29;20035;-70
2021/01/22 09:12:52;;;;;;;12.95;9.52;;;6.40;93.80;;;;;;4897677;29;20028;-70
2021/01/22 09:15:17;;;;;;;16.60;10.40;;;6.40;93.90;;;;;;4899571;29;20036;-70
2021/01/22 09:17:44;;;;;;;14.30;9.40;;;6.50;93.60;;;;;;4898885;29;20148;-71
2021/01/22 09:20:24;;;;;;;15.15;8.80;;;6.50;93.50;;;;;;4897295;29;20028;-72
2021/01/22 09:22:52;;;;;;;14.95;9.30;;;6.60;93.40;;;;;;4896996;29;20483;-73
2021/01/22 09:25:23;;;;;;;15.18;9.25;;;6.60;93.40;;;;;;4896695;29;20033;-71
2021/01/22 09:27:49;;;;;;;15.65;8.20;;;6.70;93.40;;;;;;4897372;29;20465;-71
2021/01/22 09:30:17;;;;;;;29.05;8.48;;;6.70;93.30;;;;;;4898588;29;20115;-71
2021/01/22 09:32:48;;;;;;;14.80;8.95;;;6.70;93.20;;;;;;4892280;29;20056;-70
2021/01/22 09:35:14;;;;;;;16.00;9.82;;;6.80;93.30;;;;;;4896944;29;20482;-70
2021/01/22 09:37:40;;;;;;;14.20;9.20;;;6.80;93.20;;;;;;4896409;29;20108;-70
2021/01/22 09:40:07;;;;;;;16.58;9.07;;;6.90;93.00;;;;;;4896816;29;20059;-70
2021/01/22 09:42:33;;;;;;;12.93;8.15;;;6.90;92.90;;;;;;4896763;29;20487;-70
2021/01/22 09:44:58;;;;;;;13.77;8.02;;;6.90;92.80;;;;;;4896490;29;20190;-71
2021/01/22 09:47:24;;;;;;;11.90;7.88;;;6.90;92.70;;;;;;4896752;29;20036;-71
2021/01/22 09:49:50;;;;;;;14.35;8.23;;;6.80;92.70;;;;;;4912930;29;20116;-70
2021/01/22 09:52:15;;;;;;;13.68;8.07;;;6.80;92.80;;;;;;4913697;29;20020;-72
2021/01/22 09:54:45;;;;;;;16.40;8.35;;;6.80;92.70;;;;;;4912644;29;20552;-73
2021/01/22 09:57:11;;;;;;;14.93;8.25;;;6.80;92.60;;;;;;4915982;29;20024;-72
2021/01/22 09:59:37;;;;;;;14.95;8.82;;;6.90;92.70;;;;;;4915005;29;20035;-71
2021/01/22 10:02:03;;;;;;;16.50;8.60;;;7.00;92.70;;;;;;4915678;29;20028;-71
2021/01/22 10:04:28;;;;;;;15.65;8.90;;;7.00;92.60;;;;;;4915782;29;20020;-71
2021/01/22 10:06:54;;;;;;;9.32;7.20;;;7.10;92.50;;;;;;4909378;29;20500;-70
2021/01/22 10:09:20;;;;;;;9.70;7.80;;;7.10;92.30;;;;;;4896760;29;20080;-73
2021/01/22 10:11:45;;;;;;;19.83;9.05;;;7.10;92.30;;;;;;4896907;29;20116;-72
2021/01/22 10:14:11;;;;;;;12.73;7.38;;;7.20;92.40;;;;;;4896382;29;20032;-74
2021/01/22 10:16:36;;;;;;;15.05;7.70;;;7.30;92.50;;;;;;4912476;29;20028;-71
2021/01/22 10:19:02;;;;;;;13.75;7.53;;;7.30;92.30;;;;;;4896944;29;20089;-70
2021/01/22 10:21:28;;;;;;;19.23;8.45;;;7.40;92.20;;;;;;4895915;29;20088;-74
2021/01/22 10:23:54;;;;;;;12.65;6.82;;;7.50;92.20;;;;;;4897042;29;20033;-69
2021/01/22 10:26:21;;;;;;;14.68;7.70;;;7.50;92.00;;;;;;4896683;29;20036;-72
2021/01/22 10:28:48;;;;;;;13.70;7.22;;;7.50;92.00;;;;;;4896144;29;20107;-71
2021/01/22 10:31:13;;;;;;;11.82;6.57;;;7.50;91.90;;;;;;4896758;29;20055;-72
2021/01/22 10:33:39;;;;;;;15.15;7.00;;;7.50;91.90;;;;;;4898433;29;20064;-69
2021/01/22 10:36:06;;;;;;;10.60;6.00;;;7.60;92.00;;;;;;4901219;29;20029;-69
2021/01/22 10:38:33;;;;;;;13.23;7.03;;;7.60;91.80;;;;;;4899819;29;20036;-69
2021/01/22 10:40:59;;;;;;;8.35;6.00;;;7.60;91.60;;;;;;4899588;29;20031;-69
2021/01/22 10:43:25;;;;;;;11.90;6.13;;;7.70;91.60;;;;;;4899841;29;20040;-69
2021/01/22 10:45:51;;;;;;;10.20;6.20;;;7.80;91.50;;;;;;4899826;29;20038;-70
2021/01/22 10:48:18;;;;;;;9.13;6.03;;;7.90;91.40;;;;;;4899210;29;20404;-71
2021/01/22 10:50:43;;;;;;;17.98;6.85;;;7.90;90.90;;;;;;4902847;29;20079;-69
2021/01/22 10:53:09;;;;;;;10.45;5.93;;;7.90;91.00;;;;;;4910241;29;20506;-70
2021/01/22 10:55:35;;;;;;;12.35;7.05;;;7.90;91.20;;;;;;4899124;29;20021;-69
2021/01/22 10:58:01;;;;;;;15.15;7.32;;;7.90;91.10;;;;;;4905438;29;20040;-70
2021/01/22 11:00:26;;;;;;;14.70;6.30;;;7.90;91.00;;;;;;4917347;29;20115;-71
2021/01/22 11:02:52;;;;;;;10.48;6.00;;;8.00;91.00;;;;;;4902882;29;20399;-71
2021/01/22 11:05:17;;;;;;;13.95;6.47;;;8.10;91.00;;;;;;4911363;29;20035;-72
2021/01/22 11:07:43;;;;;;;10.85;5.32;;;8.10;90.70;;;;;;4916781;29;20044;-71
2021/01/22 11:10:09;;;;;;;11.27;6.40;;;8.10;90.60;;;;;;4916961;29;20028;-73
2021/01/22 11:12:35;;;;;;;11.15;6.32;;;8.10;90.50;;;;;;4899142;29;20112;-69
2021/01/22 11:15:00;;;;;;;15.23;6.30;;;8.10;90.50;;;;;;4899564;29;20141;-70
2021/01/22 11:17:26;;;;;;;10.00;5.55;;;8.20;90.60;;;;;;4898517;29;20060;-69
2021/01/22 11:19:52;;;;;;;14.15;6.55;;;8.20;90.40;;;;;;4899429;29;20024;-69
2021/01/22 11:22:18;;;;;;;12.73;5.95;;;8.20;90.30;;;;;;4899336;29;20033;-69
2021/01/22 11:24:44;;;;;;;17.20;5.53;;;8.20;90.50;;;;;;4899018;29;20107;-71
2021/01/22 11:27:10;;;;;;;16.90;5.60;;;8.10;90.50;;;;;;4915994;29;20130;-71
2021/01/22 11:29:37;;;;;;;16.35;5.85;;;8.10;90.50;;;;;;4917874;29;20103;-72
2021/01/22 11:32:03;;;;;;;16.10;7.15;;;8.10;90.50;;;;;;4917345;29;20035;-71
2021/01/22 11:34:28;;;;;;;10.68;5.20;;;8.10;90.50;;;;;;4917705;29;20016;-71
2021/01/22 11:36:54;;;;;;;11.35;5.25;;;8.10;90.40;;;;;;4917458;29;20103;-71
2021/01/22 11:39:20;;;;;;;12.07;5.28;;;8.20;90.30;;;;;;4916165;29;20032;-71
2021/01/22 11:41:45;;;;;;;13.98;5.00;;;8.30;90.30;;;;;;4918015;29;20038;-72
2021/01/22 11:44:11;;;;;;;12.13;4.93;;;8.40;90.20;;;;;;4916385;29;20508;-71
2021/01/22 11:46:37;;;;;;;8.80;5.20;;;8.50;90.00;;;;;;4917385;29;20044;-71
2021/01/22 11:49:03;;;;;;;11.30;4.68;;;8.60;90.00;;;;;;4917771;29;20024;-71
2021/01/22 11:51:28;;;;;;;12.38;4.55;;;8.70;89.60;;;;;;4907039;29;20429;-72
2021/01/22 11:53:54;;;;;;;11.18;4.90;;;8.70;89.70;;;;;;4898457;29;20053;-69
2021/01/22 11:56:19;;;;;;;9.45;4.95;;;8.60;89.20;;;;;;4898595;29;20032;-70
2021/01/22 11:58:45;;;;;;;11.50;5.35;;;8.60;88.70;;;;;;4897891;29;20533;-70
2021/01/22 12:01:10;;;;;;;10.75;4.20;;;8.60;88.30;;;;;;4902245;29;20028;-70
2021/01/22 12:03:36;;;;;;;8.48;4.40;;;8.60;88.00;;;;;;4898202;29;20051;-71
2021/01/22 12:06:01;;;;;;;10.50;4.70;;;8.60;88.60;;;;;;4898182;29;20028;-67
2021/01/22 12:08:27;;;;;;;9.65;4.53;;;8.60;88.40;;;;;;4898392;29;20084;-70
2021/01/22 12:10:53;;;;;;;14.48;6.03;;;8.60;88.00;;;;;;4906716;29;20099;-69
2021/01/22 12:13:19;;;;;;;13.38;4.38;;;8.60;88.00;;;;;;4916241;29;20036;-70
2021/01/22 12:15:46;;;;;;;10.80;4.57;;;8.70;87.60;;;;;;4907913;29;20119;-71
2021/01/22 12:18:11;;;;;;;13.65;5.13;;;8.70;87.50;;;;;;4898601;29;20081;-70
2021/01/22 12:20:37;;;;;;;11.93;4.63;;;8.70;86.90;;;;;;4897625;29;20020;-68
2021/01/22 12:23:03;;;;;;;10.57;4.07;;;8.70;86.70;;;;;;4898504;29;20029;-69
2021/01/22 12:25:29;;;;;;;9.80;4.10;;;8.60;87.00;;;;;;4899049;29;20438;-69
2021/01/22 12:27:54;;;;;;;11.85;4.45;;;8.60;86.90;;;;;;4899096;29;20040;-69
2021/01/22 12:30:20;;;;;;;7.60;3.53;;;8.60;86.90;;;;;;4910433;29;20021;-69
2021/01/22 12:32:46;;;;;;;14.55;5.40;;;8.60;86.80;;;;;;4898541;29;20032;-68
2021/01/22 12:35:12;;;;;;;10.30;5.07;;;8.60;87.00;;;;;;4898395;29;20497;-68
2021/01/22 12:37:38;;;;;;;8.77;3.50;;;8.50;87.30;;;;;;4897707;29;20036;-69
2021/01/22 12:40:04;;;;;;;13.40;4.80;;;8.50;87.20;;;;;;4898160;29;20039;-71
2021/01/22 12:42:30;;;;;;;8.45;3.97;;;8.30;86.90;;;;;;4897254;29;20033;-68
2021/01/22 12:44:55;;;;;;;12.93;4.07;;;8.20;87.30;;;;;;4897884;29;20040;-69
2021/01/22 12:47:21;;;;;;;15.23;4.63;;;8.20;87.70;;;;;;4896871;29;20047;-69
2021/01/22 12:49:46;;;;;;;11.73;4.35;;;8.00;87.60;;;;;;4897548;29;20430;-69
2021/01/22 12:52:12;;;;;;;16.63;4.38;;;8.00;87.80;;;;;;4898910;29;20032;-69